sensor_id;sensor_type;location;lat;lon;timestamp;P1;durP1;ratioP1;P2;durP2;ratioP2
15327;SDS011;7764;51.430;6.840;2023-03-05T00:01:16;20.23;;;6.77;;
15327;SDS011;7764;51.430;6.840;2023-03-05T00:03:46;16.83;;;4.50;;
15327;SDS011;7764;51.430;6.840;2023-03-05T00:06:13;12.17;;;4.27;;
15327;SDS011;7764;51.430;6.840;2023-03-05T00:08:41;13.87;;;5.17;;
15327;SDS011;7764;51.430;6.840;2023-03-05T00:11:08;14.43;;;4.50;;
15327;SDS011;7764;51.430;6.840;2023-03-05T00:13:37;11.73;;;3.70;;
15327;SDS011;7764;51.430;6.840;2023-03-05T00:16:06;12.57;;;3.90;;
15327;SDS011;7764;51.430;6.840;2023-03-05T00:18:35;14.60;;;4.23;;
15327;SDS011;7764;51.430;6.840;2023-03-05T00:21:02;10.77;;;3.10;;
15327;SDS011;7764;51.430;6.840;2023-03-05T00:23:29;14.27;;;3.80;;
15327;SDS011;7764;51.430;6.840;2023-03-05T00:25:59;12.43;;;3.30;;
15327;SDS011;7764;51.430;6.840;2023-03-05T00:28:27;14.20;;;3.30;;
15327;SDS011;7764;51.430;6.840;2023-03-05T00:30:57;9.83;;;3.80;;
15327;SDS011;7764;51.430;6.840;2023-03-05T00:33:26;10.87;;;3.30;;
15327;SDS011;7764;51.430;6.840;2023-03-05T00:35:53;13.90;;;2.80;;
15327;SDS011;7764;51.430;6.840;2023-03-05T00:38:21;8.80;;;2.50;;
15327;SDS011;7764;51.430;6.840;2023-03-05T00:40:49;7.70;;;2.20;;
15327;SDS011;7764;51.430;6.840;2023-03-05T00:43:16;9.07;;;3.10;;
15327;SDS011;7764;51.430;6.840;2023-03-05T00:45:43;11.60;;;4.10;;
15327;SDS011;7764;51.430;6.840;2023-03-05T00:48:09;9.33;;;4.10;;
15327;SDS011;7764;51.430;6.840;2023-03-05T00:50:38;14.80;;;4.67;;
15327;SDS011;7764;51.430;6.840;2023-03-05T00:53:04;12.90;;;4.40;;
15327;SDS011;7764;51.430;6.840;2023-03-05T00:55:31;15.07;;;5.00;;
15327;SDS011;7764;51.430;6.840;2023-03-05T00:58:00;13.50;;;4.77;;
15327;SDS011;7764;51.430;6.840;2023-03-05T01:00:27;16.37;;;5.50;;
15327;SDS011;7764;51.430;6.840;2023-03-05T01:02:53;14.83;;;4.90;;
15327;SDS011;7764;51.430;6.840;2023-03-05T01:05:20;14.33;;;5.07;;
15327;SDS011;7764;51.430;6.840;2023-03-05T01:07:50;18.00;;;4.90;;
15327;SDS011;7764;51.430;6.840;2023-03-05T01:10:17;11.93;;;4.80;;
15327;SDS011;7764;51.430;6.840;2023-03-05T01:12:45;12.97;;;4.87;;
15327;SDS011;7764;51.430;6.840;2023-03-05T01:15:11;18.00;;;5.40;;
15327;SDS011;7764;51.430;6.840;2023-03-05T01:17:38;15.53;;;5.00;;
15327;SDS011;7764;51.430;6.840;2023-03-05T01:20:06;15.97;;;4.93;;
15327;SDS011;7764;51.430;6.840;2023-03-05T01:22:38;16.33;;;5.60;;
15327;SDS011;7764;51.430;6.840;2023-03-05T01:25:07;19.23;;;6.00;;
15327;SDS011;7764;51.430;6.840;2023-03-05T01:27:34;19.90;;;6.30;;
15327;SDS011;7764;51.430;6.840;2023-03-05T01:30:01;18.63;;;5.83;;
15327;SDS011;7764;51.430;6.840;2023-03-05T01:32:28;17.30;;;5.53;;
15327;SDS011;7764;51.430;6.840;2023-03-05T01:34:55;14.60;;;5.20;;
15327;SDS011;7764;51.430;6.840;2023-03-05T01:37:22;13.97;;;5.30;;
15327;SDS011;7764;51.430;6.840;2023-03-05T01:39:48;16.27;;;5.97;;
15327;SDS011;7764;51.430;6.840;2023-03-05T01:42:16;18.03;;;5.40;;
15327;SDS011;7764;51.430;6.840;2023-03-05T01:44:58;16.20;;;5.53;;
15327;SDS011;7764;51.430;6.840;2023-03-05T01:47:26;20.17;;;5.70;;
15327;SDS011;7764;51.430;6.840;2023-03-05T01:49:53;11.33;;;4.80;;
15327;SDS011;7764;51.430;6.840;2023-03-05T01:52:20;19.27;;;5.73;;
15327;SDS011;7764;51.430;6.840;2023-03-05T01:54:50;13.83;;;4.90;;
15327;SDS011;7764;51.430;6.840;2023-03-05T01:57:22;14.57;;;4.83;;
15327;SDS011;7764;51.430;6.840;2023-03-05T01:59:52;13.20;;;4.97;;
15327;SDS011;7764;51.430;6.840;2023-03-05T02:02:22;13.03;;;4.77;;
15327;SDS011;7764;51.430;6.840;2023-03-05T02:04:51;12.97;;;3.93;;
15327;SDS011;7764;51.430;6.840;2023-03-05T02:07:20;16.67;;;5.07;;
15327;SDS011;7764;51.430;6.840;2023-03-05T02:09:48;12.27;;;3.80;;
15327;SDS011;7764;51.430;6.840;2023-03-05T02:12:15;12.50;;;4.23;;
15327;SDS011;7764;51.430;6.840;2023-03-05T02:14:44;13.50;;;3.80;;
15327;SDS011;7764;51.430;6.840;2023-03-05T02:17:13;13.27;;;3.97;;
15327;SDS011;7764;51.430;6.840;2023-03-05T02:19:47;12.23;;;3.90;;
15327;SDS011;7764;51.430;6.840;2023-03-05T02:22:17;12.27;;;4.07;;
15327;SDS011;7764;51.430;6.840;2023-03-05T02:24:45;14.47;;;3.90;;
15327;SDS011;7764;51.430;6.840;2023-03-05T02:27:12;12.43;;;3.50;;
15327;SDS011;7764;51.430;6.840;2023-03-05T02:29:41;16.47;;;4.07;;
15327;SDS011;7764;51.430;6.840;2023-03-05T02:32:10;15.87;;;4.07;;
15327;SDS011;7764;51.430;6.840;2023-03-05T02:34:37;13.87;;;4.20;;
15327;SDS011;7764;51.430;6.840;2023-03-05T02:37:04;16.23;;;4.20;;
15327;SDS011;7764;51.430;6.840;2023-03-05T02:39:34;16.83;;;4.10;;
15327;SDS011;7764;51.430;6.840;2023-03-05T02:42:02;14.70;;;4.37;;
15327;SDS011;7764;51.430;6.840;2023-03-05T02:44:29;12.87;;;4.00;;
15327;SDS011;7764;51.430;6.840;2023-03-05T02:46:59;12.40;;;4.17;;
15327;SDS011;7764;51.430;6.840;2023-03-05T02:49:26;12.50;;;4.07;;
15327;SDS011;7764;51.430;6.840;2023-03-05T02:51:53;13.73;;;4.97;;
15327;SDS011;7764;51.430;6.840;2023-03-05T02:54:20;17.60;;;4.90;;
15327;SDS011;7764;51.430;6.840;2023-03-05T02:56:48;11.57;;;4.30;;
15327;SDS011;7764;51.430;6.840;2023-03-05T02:59:15;12.37;;;4.40;;
15327;SDS011;7764;51.430;6.840;2023-03-05T03:01:42;15.47;;;4.90;;
15327;SDS011;7764;51.430;6.840;2023-03-05T03:04:09;14.33;;;4.63;;
15327;SDS011;7764;51.430;6.840;2023-03-05T03:06:36;12.27;;;4.63;;
15327;SDS011;7764;51.430;6.840;2023-03-05T03:09:03;19.30;;;4.43;;
15327;SDS011;7764;51.430;6.840;2023-03-05T03:11:30;15.67;;;4.97;;
15327;SDS011;7764;51.430;6.840;2023-03-05T03:13:58;13.70;;;4.50;;
15327;SDS011;7764;51.430;6.840;2023-03-05T03:16:25;12.27;;;4.17;;
15327;SDS011;7764;51.430;6.840;2023-03-05T03:18:52;13.20;;;4.50;;
15327;SDS011;7764;51.430;6.840;2023-03-05T03:21:20;12.83;;;4.10;;
15327;SDS011;7764;51.430;6.840;2023-03-05T03:23:48;16.50;;;4.63;;
15327;SDS011;7764;51.430;6.840;2023-03-05T03:26:19;18.80;;;4.77;;
15327;SDS011;7764;51.430;6.840;2023-03-05T03:28:45;16.23;;;4.70;;
15327;SDS011;7764;51.430;6.840;2023-03-05T03:31:14;13.63;;;4.30;;
15327;SDS011;7764;51.430;6.840;2023-03-05T03:33:41;14.00;;;4.07;;
15327;SDS011;7764;51.430;6.840;2023-03-05T03:36:08;13.73;;;4.37;;
15327;SDS011;7764;51.430;6.840;2023-03-05T03:38:35;11.97;;;4.63;;
15327;SDS011;7764;51.430;6.840;2023-03-05T03:41:04;13.60;;;4.43;;
15327;SDS011;7764;51.430;6.840;2023-03-05T03:43:31;13.97;;;4.30;;
15327;SDS011;7764;51.430;6.840;2023-03-05T03:45:58;14.27;;;4.50;;
15327;SDS011;7764;51.430;6.840;2023-03-05T03:48:27;11.60;;;4.20;;
15327;SDS011;7764;51.430;6.840;2023-03-05T03:50:54;12.13;;;4.37;;
15327;SDS011;7764;51.430;6.840;2023-03-05T03:53:20;12.87;;;4.53;;
15327;SDS011;7764;51.430;6.840;2023-03-05T03:55:47;13.37;;;3.80;;
15327;SDS011;7764;51.430;6.840;2023-03-05T03:58:14;16.20;;;6.40;;
15327;SDS011;7764;51.430;6.840;2023-03-05T04:00:41;13.60;;;4.27;;
15327;SDS011;7764;51.430;6.840;2023-03-05T04:03:08;11.00;;;3.80;;
15327;SDS011;7764;51.430;6.840;2023-03-05T04:05:36;12.00;;;4.40;;
15327;SDS011;7764;51.430;6.840;2023-03-05T04:08:03;13.67;;;4.57;;
15327;SDS011;7764;51.430;6.840;2023-03-05T04:10:35;11.73;;;4.03;;
15327;SDS011;7764;51.430;6.840;2023-03-05T04:13:02;11.93;;;3.73;;
15327;SDS011;7764;51.430;6.840;2023-03-05T04:15:29;15.17;;;4.60;;
15327;SDS011;7764;51.430;6.840;2023-03-05T04:17:56;11.73;;;4.17;;
15327;SDS011;7764;51.430;6.840;2023-03-05T04:20:23;11.93;;;3.80;;
15327;SDS011;7764;51.430;6.840;2023-03-05T04:22:51;11.73;;;4.13;;
15327;SDS011;7764;51.430;6.840;2023-03-05T04:25:18;18.73;;;4.27;;
15327;SDS011;7764;51.430;6.840;2023-03-05T04:27:45;9.67;;;3.20;;
15327;SDS011;7764;51.430;6.840;2023-03-05T04:30:12;15.40;;;3.90;;
15327;SDS011;7764;51.430;6.840;2023-03-05T04:32:39;10.13;;;3.70;;
15327;SDS011;7764;51.430;6.840;2023-03-05T04:35:07;9.70;;;3.80;;
15327;SDS011;7764;51.430;6.840;2023-03-05T04:37:34;12.70;;;4.03;;
15327;SDS011;7764;51.430;6.840;2023-03-05T04:40:02;14.97;;;4.03;;
15327;SDS011;7764;51.430;6.840;2023-03-05T04:42:29;10.43;;;4.30;;
15327;SDS011;7764;51.430;6.840;2023-03-05T04:44:56;17.33;;;5.10;;
15327;SDS011;7764;51.430;6.840;2023-03-05T04:47:23;14.17;;;4.87;;
15327;SDS011;7764;51.430;6.840;2023-03-05T04:49:50;13.87;;;5.30;;
15327;SDS011;7764;51.430;6.840;2023-03-05T04:52:17;11.43;;;4.67;;
15327;SDS011;7764;51.430;6.840;2023-03-05T04:54:44;12.93;;;4.97;;
15327;SDS011;7764;51.430;6.840;2023-03-05T04:57:12;12.83;;;4.83;;
15327;SDS011;7764;51.430;6.840;2023-03-05T04:59:39;11.40;;;4.70;;
15327;SDS011;7764;51.430;6.840;2023-03-05T05:02:06;12.43;;;4.83;;
15327;SDS011;7764;51.430;6.840;2023-03-05T05:04:33;16.23;;;4.90;;
15327;SDS011;7764;51.430;6.840;2023-03-05T05:07:00;13.27;;;4.20;;
15327;SDS011;7764;51.430;6.840;2023-03-05T05:09:27;13.97;;;4.50;;
15327;SDS011;7764;51.430;6.840;2023-03-05T05:11:54;14.10;;;4.37;;
15327;SDS011;7764;51.430;6.840;2023-03-05T05:14:22;15.33;;;4.33;;
15327;SDS011;7764;51.430;6.840;2023-03-05T05:16:49;13.97;;;4.27;;
15327;SDS011;7764;51.430;6.840;2023-03-05T05:19:16;11.07;;;4.13;;
15327;SDS011;7764;51.430;6.840;2023-03-05T05:21:43;17.03;;;4.20;;
15327;SDS011;7764;51.430;6.840;2023-03-05T05:24:10;13.27;;;3.80;;
15327;SDS011;7764;51.430;6.840;2023-03-05T05:26:36;10.73;;;3.87;;
15327;SDS011;7764;51.430;6.840;2023-03-05T05:29:03;13.37;;;3.90;;
15327;SDS011;7764;51.430;6.840;2023-03-05T05:31:32;12.37;;;4.33;;
15327;SDS011;7764;51.430;6.840;2023-03-05T05:33:58;14.37;;;3.80;;
15327;SDS011;7764;51.430;6.840;2023-03-05T05:36:25;11.97;;;4.03;;
15327;SDS011;7764;51.430;6.840;2023-03-05T05:38:52;13.67;;;3.90;;
15327;SDS011;7764;51.430;6.840;2023-03-05T05:41:19;11.80;;;4.00;;
15327;SDS011;7764;51.430;6.840;2023-03-05T05:43:46;12.10;;;4.03;;
15327;SDS011;7764;51.430;6.840;2023-03-05T05:46:14;14.77;;;3.90;;
15327;SDS011;7764;51.430;6.840;2023-03-05T05:48:44;14.20;;;4.23;;
15327;SDS011;7764;51.430;6.840;2023-03-05T05:51:12;12.03;;;4.00;;
15327;SDS011;7764;51.430;6.840;2023-03-05T05:53:41;11.20;;;3.60;;
15327;SDS011;7764;51.430;6.840;2023-03-05T05:56:09;11.77;;;4.23;;
15327;SDS011;7764;51.430;6.840;2023-03-05T05:58:37;13.87;;;4.07;;
15327;SDS011;7764;51.430;6.840;2023-03-05T06:01:10;11.17;;;3.97;;
15327;SDS011;7764;51.430;6.840;2023-03-05T06:03:38;13.27;;;4.40;;
15327;SDS011;7764;51.430;6.840;2023-03-05T06:06:08;9.50;;;4.37;;
15327;SDS011;7764;51.430;6.840;2023-03-05T06:08:36;10.80;;;4.40;;
15327;SDS011;7764;51.430;6.840;2023-03-05T06:11:03;16.90;;;4.47;;
15327;SDS011;7764;51.430;6.840;2023-03-05T06:13:30;10.37;;;4.37;;
15327;SDS011;7764;51.430;6.840;2023-03-05T06:15:57;12.83;;;4.30;;
15327;SDS011;7764;51.430;6.840;2023-03-05T06:18:25;14.30;;;4.27;;
15327;SDS011;7764;51.430;6.840;2023-03-05T06:20:55;14.27;;;4.83;;
15327;SDS011;7764;51.430;6.840;2023-03-05T06:23:24;14.97;;;4.27;;
15327;SDS011;7764;51.430;6.840;2023-03-05T06:25:51;11.43;;;4.70;;
15327;SDS011;7764;51.430;6.840;2023-03-05T06:28:19;13.07;;;4.50;;
15327;SDS011;7764;51.430;6.840;2023-03-05T06:30:46;14.03;;;5.10;;
15327;SDS011;7764;51.430;6.840;2023-03-05T06:33:13;14.10;;;5.60;;
15327;SDS011;7764;51.430;6.840;2023-03-05T06:35:40;16.20;;;5.50;;
15327;SDS011;7764;51.430;6.840;2023-03-05T06:38:07;14.13;;;5.70;;
15327;SDS011;7764;51.430;6.840;2023-03-05T06:40:37;15.60;;;5.90;;
15327;SDS011;7764;51.430;6.840;2023-03-05T06:43:04;13.00;;;5.60;;
15327;SDS011;7764;51.430;6.840;2023-03-05T06:45:31;18.33;;;6.30;;
15327;SDS011;7764;51.430;6.840;2023-03-05T06:47:58;17.53;;;5.93;;
15327;SDS011;7764;51.430;6.840;2023-03-05T06:50:25;15.57;;;6.43;;
15327;SDS011;7764;51.430;6.840;2023-03-05T06:52:51;18.40;;;6.80;;
15327;SDS011;7764;51.430;6.840;2023-03-05T06:55:18;18.27;;;6.57;;
15327;SDS011;7764;51.430;6.840;2023-03-05T06:57:47;15.87;;;5.97;;
15327;SDS011;7764;51.430;6.840;2023-03-05T07:00:14;14.47;;;6.00;;
15327;SDS011;7764;51.430;6.840;2023-03-05T07:02:41;19.13;;;6.70;;
15327;SDS011;7764;51.430;6.840;2023-03-05T07:05:08;17.77;;;6.87;;
15327;SDS011;7764;51.430;6.840;2023-03-05T07:07:35;16.80;;;6.30;;
15327;SDS011;7764;51.430;6.840;2023-03-05T07:10:03;17.00;;;6.20;;
15327;SDS011;7764;51.430;6.840;2023-03-05T07:12:31;18.93;;;6.90;;
15327;SDS011;7764;51.430;6.840;2023-03-05T07:15:00;18.50;;;6.13;;
15327;SDS011;7764;51.430;6.840;2023-03-05T07:17:27;15.07;;;5.60;;
15327;SDS011;7764;51.430;6.840;2023-03-05T07:19:53;18.90;;;5.97;;
15327;SDS011;7764;51.430;6.840;2023-03-05T07:22:20;16.03;;;5.80;;
15327;SDS011;7764;51.430;6.840;2023-03-05T07:24:47;11.77;;;5.20;;
15327;SDS011;7764;51.430;6.840;2023-03-05T07:27:15;15.17;;;5.40;;
15327;SDS011;7764;51.430;6.840;2023-03-05T07:29:41;15.17;;;5.80;;
15327;SDS011;7764;51.430;6.840;2023-03-05T07:32:10;14.13;;;5.00;;
15327;SDS011;7764;51.430;6.840;2023-03-05T07:34:36;15.57;;;5.60;;
15327;SDS011;7764;51.430;6.840;2023-03-05T07:37:03;19.50;;;6.27;;
15327;SDS011;7764;51.430;6.840;2023-03-05T07:39:30;14.70;;;6.37;;
15327;SDS011;7764;51.430;6.840;2023-03-05T07:41:57;17.47;;;7.90;;
15327;SDS011;7764;51.430;6.840;2023-03-05T07:44:24;20.20;;;8.10;;
15327;SDS011;7764;51.430;6.840;2023-03-05T07:46:51;17.87;;;7.93;;
15327;SDS011;7764;51.430;6.840;2023-03-05T07:49:19;18.13;;;7.50;;
15327;SDS011;7764;51.430;6.840;2023-03-05T07:51:49;18.97;;;7.10;;
15327;SDS011;7764;51.430;6.840;2023-03-05T07:54:15;16.80;;;6.10;;
15327;SDS011;7764;51.430;6.840;2023-03-05T07:56:42;17.17;;;6.50;;
15327;SDS011;7764;51.430;6.840;2023-03-05T07:59:09;15.90;;;6.43;;
15327;SDS011;7764;51.430;6.840;2023-03-05T08:01:38;16.50;;;6.60;;
15327;SDS011;7764;51.430;6.840;2023-03-05T08:04:05;13.17;;;5.80;;
15327;SDS011;7764;51.430;6.840;2023-03-05T08:06:33;13.70;;;5.73;;
15327;SDS011;7764;51.430;6.840;2023-03-05T08:09:00;14.37;;;6.93;;
15327;SDS011;7764;51.430;6.840;2023-03-05T08:11:27;15.20;;;6.40;;
15327;SDS011;7764;51.430;6.840;2023-03-05T08:13:54;14.17;;;5.93;;
15327;SDS011;7764;51.430;6.840;2023-03-05T08:16:23;15.13;;;6.10;;
15327;SDS011;7764;51.430;6.840;2023-03-05T08:18:52;15.80;;;6.73;;
15327;SDS011;7764;51.430;6.840;2023-03-05T08:21:21;13.03;;;5.40;;
15327;SDS011;7764;51.430;6.840;2023-03-05T08:23:52;10.83;;;5.90;;
15327;SDS011;7764;51.430;6.840;2023-03-05T08:26:20;19.20;;;5.87;;
15327;SDS011;7764;51.430;6.840;2023-03-05T08:28:48;13.67;;;6.00;;
15327;SDS011;7764;51.430;6.840;2023-03-05T08:31:16;15.40;;;6.53;;
15327;SDS011;7764;51.430;6.840;2023-03-05T08:33:45;15.17;;;5.83;;
15327;SDS011;7764;51.430;6.840;2023-03-05T08:36:12;12.03;;;5.73;;
15327;SDS011;7764;51.430;6.840;2023-03-05T08:38:39;16.50;;;5.63;;
15327;SDS011;7764;51.430;6.840;2023-03-05T08:41:07;14.17;;;6.83;;
15327;SDS011;7764;51.430;6.840;2023-03-05T08:43:34;18.40;;;8.23;;
15327;SDS011;7764;51.430;6.840;2023-03-05T08:46:02;15.20;;;7.03;;
15327;SDS011;7764;51.430;6.840;2023-03-05T08:48:29;16.10;;;6.03;;
15327;SDS011;7764;51.430;6.840;2023-03-05T08:50:57;12.97;;;6.33;;
15327;SDS011;7764;51.430;6.840;2023-03-05T08:53:29;19.00;;;8.07;;
15327;SDS011;7764;51.430;6.840;2023-03-05T08:55:56;17.63;;;8.90;;
15327;SDS011;7764;51.430;6.840;2023-03-05T08:58:25;18.90;;;9.80;;
15327;SDS011;7764;51.430;6.840;2023-03-05T09:00:52;19.63;;;9.50;;
15327;SDS011;7764;51.430;6.840;2023-03-05T09:03:19;20.57;;;11.13;;
15327;SDS011;7764;51.430;6.840;2023-03-05T09:09:08;20.87;;;12.70;;
15327;SDS011;7764;51.430;6.840;2023-03-05T09:11:36;20.07;;;11.07;;
15327;SDS011;7764;51.430;6.840;2023-03-05T09:14:04;24.53;;;11.40;;
15327;SDS011;7764;51.430;6.840;2023-03-05T09:16:32;21.77;;;12.10;;
15327;SDS011;7764;51.430;6.840;2023-03-05T09:19:00;18.53;;;10.50;;
15327;SDS011;7764;51.430;6.840;2023-03-05T09:21:27;20.33;;;10.43;;
15327;SDS011;7764;51.430;6.840;2023-03-05T09:23:53;27.10;;;12.17;;
15327;SDS011;7764;51.430;6.840;2023-03-05T09:26:23;17.97;;;9.40;;
15327;SDS011;7764;51.430;6.840;2023-03-05T09:28:50;21.10;;;10.10;;
15327;SDS011;7764;51.430;6.840;2023-03-05T09:31:18;16.33;;;9.70;;
15327;SDS011;7764;51.430;6.840;2023-03-05T09:33:46;19.13;;;9.57;;
15327;SDS011;7764;51.430;6.840;2023-03-05T09:36:15;20.13;;;11.50;;
15327;SDS011;7764;51.430;6.840;2023-03-05T09:38:44;18.57;;;10.93;;
15327;SDS011;7764;51.430;6.840;2023-03-05T09:41:13;21.20;;;10.80;;
15327;SDS011;7764;51.430;6.840;2023-03-05T09:43:48;17.53;;;11.00;;
15327;SDS011;7764;51.430;6.840;2023-03-05T09:46:27;21.17;;;11.67;;
15327;SDS011;7764;51.430;6.840;2023-03-05T09:48:59;16.07;;;9.90;;
15327;SDS011;7764;51.430;6.840;2023-03-05T09:51:34;20.77;;;11.73;;
15327;SDS011;7764;51.430;6.840;2023-03-05T09:54:05;17.93;;;11.57;;
15327;SDS011;7764;51.430;6.840;2023-03-05T09:56:38;18.47;;;10.53;;
15327;SDS011;7764;51.430;6.840;2023-03-05T09:59:12;14.83;;;10.10;;
15327;SDS011;7764;51.430;6.840;2023-03-05T10:01:47;16.20;;;9.30;;
15327;SDS011;7764;51.430;6.840;2023-03-05T10:04:17;15.43;;;8.93;;
15327;SDS011;7764;51.430;6.840;2023-03-05T10:06:49;16.17;;;8.83;;
15327;SDS011;7764;51.430;6.840;2023-03-05T10:09:39;14.63;;;9.37;;
15327;SDS011;7764;51.430;6.840;2023-03-05T10:12:12;16.67;;;9.60;;
15327;SDS011;7764;51.430;6.840;2023-03-05T10:14:45;14.70;;;9.23;;
15327;SDS011;7764;51.430;6.840;2023-03-05T10:17:37;13.37;;;8.53;;
15327;SDS011;7764;51.430;6.840;2023-03-05T10:23:18;14.00;;;8.40;;
15327;SDS011;7764;51.430;6.840;2023-03-05T10:26:07;13.57;;;7.57;;
15327;SDS011;7764;51.430;6.840;2023-03-05T10:28:45;14.47;;;7.80;;
15327;SDS011;7764;51.430;6.840;2023-03-05T10:34:40;11.53;;;7.67;;
15327;SDS011;7764;51.430;6.840;2023-03-05T10:37:24;15.47;;;8.37;;
15327;SDS011;7764;51.430;6.840;2023-03-05T10:40:12;15.17;;;7.90;;
15327;SDS011;7764;51.430;6.840;2023-03-05T10:42:44;13.67;;;7.27;;
15327;SDS011;7764;51.430;6.840;2023-03-05T10:45:20;12.07;;;7.17;;
15327;SDS011;7764;51.430;6.840;2023-03-05T10:47:53;11.40;;;7.30;;
15327;SDS011;7764;51.430;6.840;2023-03-05T10:50:26;11.63;;;7.07;;
15327;SDS011;7764;51.430;6.840;2023-03-05T10:53:03;10.20;;;6.60;;
15327;SDS011;7764;51.430;6.840;2023-03-05T10:55:39;10.33;;;6.03;;
15327;SDS011;7764;51.430;6.840;2023-03-05T10:58:09;12.20;;;6.50;;
15327;SDS011;7764;51.430;6.840;2023-03-05T11:00:38;9.40;;;5.70;;
15327;SDS011;7764;51.430;6.840;2023-03-05T11:03:06;9.27;;;5.53;;
15327;SDS011;7764;51.430;6.840;2023-03-05T11:05:38;10.93;;;5.47;;
15327;SDS011;7764;51.430;6.840;2023-03-05T11:08:21;8.07;;;4.03;;
15327;SDS011;7764;51.430;6.840;2023-03-05T11:13:38;8.17;;;4.30;;
15327;SDS011;7764;51.430;6.840;2023-03-05T11:16:25;9.73;;;4.63;;
15327;SDS011;7764;51.430;6.840;2023-03-05T11:21:45;7.30;;;4.73;;
15327;SDS011;7764;51.430;6.840;2023-03-05T11:24:29;8.83;;;5.20;;
15327;SDS011;7764;51.430;6.840;2023-03-05T11:26:57;8.80;;;5.00;;
15327;SDS011;7764;51.430;6.840;2023-03-05T11:29:25;8.20;;;5.00;;
15327;SDS011;7764;51.430;6.840;2023-03-05T11:31:55;9.47;;;4.90;;
15327;SDS011;7764;51.430;6.840;2023-03-05T11:34:39;9.17;;;4.67;;
15327;SDS011;7764;51.430;6.840;2023-03-05T11:37:10;8.40;;;4.67;;
15327;SDS011;7764;51.430;6.840;2023-03-05T11:39:47;8.10;;;5.20;;
15327;SDS011;7764;51.430;6.840;2023-03-05T11:42:30;9.27;;;5.63;;
15327;SDS011;7764;51.430;6.840;2023-03-05T11:44:57;9.63;;;6.07;;
15327;SDS011;7764;51.430;6.840;2023-03-05T11:47:25;14.37;;;7.30;;
15327;SDS011;7764;51.430;6.840;2023-03-05T11:49:59;8.90;;;5.90;;
15327;SDS011;7764;51.430;6.840;2023-03-05T11:52:33;11.53;;;7.30;;
15327;SDS011;7764;51.430;6.840;2023-03-05T11:55:09;13.83;;;7.80;;
15327;SDS011;7764;51.430;6.840;2023-03-05T11:57:42;10.67;;;7.10;;
15327;SDS011;7764;51.430;6.840;2023-03-05T12:00:14;12.30;;;6.90;;
15327;SDS011;7764;51.430;6.840;2023-03-05T12:02:43;12.17;;;7.23;;
15327;SDS011;7764;51.430;6.840;2023-03-05T12:05:14;12.43;;;7.10;;
15327;SDS011;7764;51.430;6.840;2023-03-05T12:07:45;9.57;;;6.40;;
15327;SDS011;7764;51.430;6.840;2023-03-05T12:10:15;11.17;;;5.27;;
15327;SDS011;7764;51.430;6.840;2023-03-05T12:12:45;6.63;;;4.03;;
15327;SDS011;7764;51.430;6.840;2023-03-05T12:21:02;6.77;;;4.20;;
15327;SDS011;7764;51.430;6.840;2023-03-05T12:23:47;9.77;;;4.50;;
15327;SDS011;7764;51.430;6.840;2023-03-05T12:26:16;8.10;;;4.50;;
15327;SDS011;7764;51.430;6.840;2023-03-05T12:28:53;10.83;;;4.53;;
15327;SDS011;7764;51.430;6.840;2023-03-05T12:31:25;18.43;;;12.73;;
15327;SDS011;7764;51.430;6.840;2023-03-05T12:33:59;8.83;;;5.40;;
15327;SDS011;7764;51.430;6.840;2023-03-05T12:37:08;30.70;;;20.80;;
15327;SDS011;7764;51.430;6.840;2023-03-05T12:39:47;11.40;;;6.93;;
15327;SDS011;7764;51.430;6.840;2023-03-05T12:45:21;8.60;;;4.43;;
15327;SDS011;7764;51.430;6.840;2023-03-05T12:50:50;8.17;;;5.00;;
15327;SDS011;7764;51.430;6.840;2023-03-05T12:53:23;7.90;;;5.00;;
15327;SDS011;7764;51.430;6.840;2023-03-05T12:55:55;7.43;;;4.30;;
15327;SDS011;7764;51.430;6.840;2023-03-05T12:58:29;9.33;;;4.40;;
15327;SDS011;7764;51.430;6.840;2023-03-05T13:01:01;18.40;;;12.57;;
15327;SDS011;7764;51.430;6.840;2023-03-05T13:03:32;9.60;;;4.93;;
15327;SDS011;7764;51.430;6.840;2023-03-05T13:06:01;10.80;;;5.77;;
15327;SDS011;7764;51.430;6.840;2023-03-05T13:08:31;8.97;;;5.67;;
15327;SDS011;7764;51.430;6.840;2023-03-05T13:11:02;8.73;;;5.43;;
15327;SDS011;7764;51.430;6.840;2023-03-05T13:13:32;8.00;;;4.20;;
15327;SDS011;7764;51.430;6.840;2023-03-05T13:16:01;10.87;;;6.40;;
15327;SDS011;7764;51.430;6.840;2023-03-05T13:18:29;10.83;;;6.07;;
15327;SDS011;7764;51.430;6.840;2023-03-05T13:21:00;7.80;;;5.20;;
15327;SDS011;7764;51.430;6.840;2023-03-05T13:23:29;7.87;;;5.20;;
15327;SDS011;7764;51.430;6.840;2023-03-05T13:26:02;8.30;;;4.60;;
15327;SDS011;7764;51.430;6.840;2023-03-05T13:28:37;6.73;;;3.43;;
15327;SDS011;7764;51.430;6.840;2023-03-05T13:31:11;5.90;;;3.00;;
15327;SDS011;7764;51.430;6.840;2023-03-05T13:33:39;8.53;;;5.13;;
15327;SDS011;7764;51.430;6.840;2023-03-05T13:36:17;6.13;;;3.27;;
15327;SDS011;7764;51.430;6.840;2023-03-05T13:38:44;8.70;;;4.93;;
15327;SDS011;7764;51.430;6.840;2023-03-05T13:41:20;8.00;;;4.57;;
15327;SDS011;7764;51.430;6.840;2023-03-05T13:43:49;5.70;;;3.07;;
15327;SDS011;7764;51.430;6.840;2023-03-05T13:46:24;9.87;;;6.87;;
15327;SDS011;7764;51.430;6.840;2023-03-05T13:48:54;4.60;;;3.07;;
15327;SDS011;7764;51.430;6.840;2023-03-05T13:51:21;10.13;;;8.50;;
15327;SDS011;7764;51.430;6.840;2023-03-05T13:53:48;5.50;;;3.47;;
15327;SDS011;7764;51.430;6.840;2023-03-05T13:56:25;7.00;;;5.00;;
15327;SDS011;7764;51.430;6.840;2023-03-05T13:58:52;10.97;;;5.77;;
15327;SDS011;7764;51.430;6.840;2023-03-05T14:01:30;9.10;;;4.43;;
15327;SDS011;7764;51.430;6.840;2023-03-05T14:04:02;13.87;;;6.70;;
15327;SDS011;7764;51.430;6.840;2023-03-05T14:06:32;10.87;;;6.77;;
15327;SDS011;7764;51.430;6.840;2023-03-05T14:09:06;16.03;;;9.43;;
15327;SDS011;7764;51.430;6.840;2023-03-05T14:11:51;16.17;;;7.80;;
15327;SDS011;7764;51.430;6.840;2023-03-05T14:14:23;19.20;;;10.90;;
15327;SDS011;7764;51.430;6.840;2023-03-05T14:16:51;15.73;;;7.97;;
15327;SDS011;7764;51.430;6.840;2023-03-05T14:19:29;14.63;;;8.03;;
15327;SDS011;7764;51.430;6.840;2023-03-05T14:21:58;13.77;;;7.37;;
15327;SDS011;7764;51.430;6.840;2023-03-05T14:24:26;17.30;;;9.00;;
15327;SDS011;7764;51.430;6.840;2023-03-05T14:26:56;15.83;;;8.83;;
15327;SDS011;7764;51.430;6.840;2023-03-05T14:29:27;20.43;;;9.33;;
15327;SDS011;7764;51.430;6.840;2023-03-05T14:31:55;15.87;;;8.17;;
15327;SDS011;7764;51.430;6.840;2023-03-05T14:34:24;14.40;;;7.83;;
15327;SDS011;7764;51.430;6.840;2023-03-05T14:36:54;16.60;;;8.60;;
15327;SDS011;7764;51.430;6.840;2023-03-05T14:39:28;15.90;;;7.33;;
15327;SDS011;7764;51.430;6.840;2023-03-05T14:44:52;20.30;;;11.27;;
15327;SDS011;7764;51.430;6.840;2023-03-05T14:47:19;13.37;;;7.53;;
15327;SDS011;7764;51.430;6.840;2023-03-05T14:49:46;13.60;;;7.30;;
15327;SDS011;7764;51.430;6.840;2023-03-05T14:52:13;13.37;;;7.30;;
15327;SDS011;7764;51.430;6.840;2023-03-05T14:54:42;11.93;;;7.47;;
15327;SDS011;7764;51.430;6.840;2023-03-05T14:57:11;11.73;;;6.77;;
15327;SDS011;7764;51.430;6.840;2023-03-05T14:59:45;13.53;;;7.27;;
15327;SDS011;7764;51.430;6.840;2023-03-05T15:02:15;12.13;;;6.50;;
15327;SDS011;7764;51.430;6.840;2023-03-05T15:04:43;13.67;;;7.27;;
15327;SDS011;7764;51.430;6.840;2023-03-05T15:07:21;13.90;;;7.83;;
15327;SDS011;7764;51.430;6.840;2023-03-05T15:09:51;11.60;;;6.80;;
15327;SDS011;7764;51.430;6.840;2023-03-05T15:12:18;14.77;;;8.27;;
15327;SDS011;7764;51.430;6.840;2023-03-05T15:14:49;13.07;;;7.60;;
15327;SDS011;7764;51.430;6.840;2023-03-05T15:17:18;11.37;;;7.60;;
15327;SDS011;7764;51.430;6.840;2023-03-05T15:19:46;13.93;;;8.23;;
15327;SDS011;7764;51.430;6.840;2023-03-05T15:22:14;12.17;;;6.40;;
15327;SDS011;7764;51.430;6.840;2023-03-05T15:24:41;9.03;;;5.93;;
15327;SDS011;7764;51.430;6.840;2023-03-05T15:27:08;9.47;;;6.10;;
15327;SDS011;7764;51.430;6.840;2023-03-05T15:29:35;15.63;;;7.60;;
15327;SDS011;7764;51.430;6.840;2023-03-05T15:32:04;18.53;;;7.83;;